sensor_id;sensor_type;location;lat;lon;timestamp;temperature;humidity
22674;DHT22;11504;43.334;21.918;2023-01-01T00:03:32;8.3;100.0
22674;DHT22;11504;43.334;21.918;2023-01-01T00:17:21;8.3;100.0
22674;DHT22;11504;43.334;21.918;2023-01-01T00:21:57;8.3;100.0
22674;DHT22;11504;43.334;21.918;2023-01-01T00:26:34;8.3;100.0
22674;DHT22;11504;43.334;21.918;2023-01-01T00:31:21;8.3;100.0
22674;DHT22;11504;43.334;21.918;2023-01-01T00:36:06;8.3;100.0
22674;DHT22;11504;43.334;21.918;2023-01-01T00:40:43;8.2;100.0
22674;DHT22;11504;43.334;21.918;2023-01-01T00:45:20;8.2;100.0
22674;DHT22;11504;43.334;21.918;2023-01-01T00:49:56;8.1;100.0
22674;DHT22;11504;43.334;21.918;2023-01-01T00:54:32;8.1;100.0
22674;DHT22;11504;43.334;21.918;2023-01-01T00:59:08;8.0;100.0
22674;DHT22;11504;43.334;21.918;2023-01-01T01:03:45;8.0;100.0
22674;DHT22;11504;43.334;21.918;2023-01-01T01:08:21;7.9;100.0
22674;DHT22;11504;43.334;21.918;2023-01-01T01:12:58;7.9;100.0
22674;DHT22;11504;43.334;21.918;2023-01-01T01:17:36;7.8;100.0
22674;DHT22;11504;43.334;21.918;2023-01-01T01:22:12;7.8;100.0
22674;DHT22;11504;43.334;21.918;2023-01-01T01:26:48;7.8;100.0
22674;DHT22;11504;43.334;21.918;2023-01-01T01:31:32;7.7;100.0
22674;DHT22;11504;43.334;21.918;2023-01-01T01:36:12;7.7;100.0
22674;DHT22;11504;43.334;21.918;2023-01-01T01:40:52;7.6;100.0
22674;DHT22;11504;43.334;21.918;2023-01-01T01:45:28;7.6;100.0
22674;DHT22;11504;43.334;21.918;2023-01-01T01:50:21;7.6;100.0
22674;DHT22;11504;43.334;21.918;2023-01-01T01:55:10;7.6;100.0
22674;DHT22;11504;43.334;21.918;2023-01-01T01:59:56;7.6;100.0
22674;DHT22;11504;43.334;21.918;2023-01-01T02:04:38;7.6;100.0
22674;DHT22;11504;43.334;21.918;2023-01-01T02:09:18;7.6;100.0
22674;DHT22;11504;43.334;21.918;2023-01-01T02:14:00;7.6;100.0
22674;DHT22;11504;43.334;21.918;2023-01-01T02:18:58;7.5;100.0
22674;DHT22;11504;43.334;21.918;2023-01-01T02:24:48;7.5;100.0
22674;DHT22;11504;43.334;21.918;2023-01-01T02:29:50;7.4;100.0
22674;DHT22;11504;43.334;21.918;2023-01-01T02:34:43;7.4;100.0
22674;DHT22;11504;43.334;21.918;2023-01-01T02:39:37;7.4;100.0
22674;DHT22;11504;43.334;21.918;2023-01-01T02:44:29;7.4;100.0
22674;DHT22;11504;43.334;21.918;2023-01-01T02:49:11;7.5;100.0
22674;DHT22;11504;43.334;21.918;2023-01-01T02:54:07;7.5;100.0
22674;DHT22;11504;43.334;21.918;2023-01-01T02:59:31;7.4;100.0
22674;DHT22;11504;43.334;21.918;2023-01-01T03:05:09;7.4;100.0
22674;DHT22;11504;43.334;21.918;2023-01-01T03:10:16;7.2;100.0
22674;DHT22;11504;43.334;21.918;2023-01-01T03:15:32;7.2;100.0
22674;DHT22;11504;43.334;21.918;2023-01-01T03:20:32;7.2;100.0
22674;DHT22;11504;43.334;21.918;2023-01-01T03:25:28;7.2;100.0
22674;DHT22;11504;43.334;21.918;2023-01-01T03:39:54;7.3;100.0
22674;DHT22;11504;43.334;21.918;2023-01-01T03:44:49;7.3;100.0
22674;DHT22;11504;43.334;21.918;2023-01-01T03:49:30;7.3;100.0
22674;DHT22;11504;43.334;21.918;2023-01-01T03:54:37;7.3;100.0
22674;DHT22;11504;43.334;21.918;2023-01-01T03:59:38;7.2;100.0
22674;DHT22;11504;43.334;21.918;2023-01-01T04:04:18;7.2;100.0
22674;DHT22;11504;43.334;21.918;2023-01-01T04:09:08;7.1;100.0
22674;DHT22;11504;43.334;21.918;2023-01-01T04:13:48;7.1;100.0
22674;DHT22;11504;43.334;21.918;2023-01-01T04:18:24;7.0;100.0
22674;DHT22;11504;43.334;21.918;2023-01-01T04:23:03;7.0;100.0
22674;DHT22;11504;43.334;21.918;2023-01-01T04:27:40;6.8;100.0
22674;DHT22;11504;43.334;21.918;2023-01-01T04:32:17;6.8;100.0
22674;DHT22;11504;43.334;21.918;2023-01-01T04:36:54;6.8;100.0
22674;DHT22;11504;43.334;21.918;2023-01-01T04:41:32;6.8;100.0
22674;DHT22;11504;43.334;21.918;2023-01-01T04:46:09;6.8;100.0
22674;DHT22;11504;43.334;21.918;2023-01-01T04:50:59;6.8;100.0
22674;DHT22;11504;43.334;21.918;2023-01-01T04:55:40;6.8;100.0
22674;DHT22;11504;43.334;21.918;2023-01-01T05:00:17;6.7;100.0
22674;DHT22;11504;43.334;21.918;2023-01-01T05:04:54;6.7;100.0
22674;DHT22;11504;43.334;21.918;2023-01-01T05:09:31;6.6;100.0
22674;DHT22;11504;43.334;21.918;2023-01-01T05:14:07;6.6;100.0
22674;DHT22;11504;43.334;21.918;2023-01-01T05:18:46;6.5;100.0
22674;DHT22;11504;43.334;21.918;2023-01-01T05:23:23;6.5;100.0
22674;DHT22;11504;43.334;21.918;2023-01-01T05:27:59;6.4;100.0
22674;DHT22;11504;43.334;21.918;2023-01-01T05:32:36;6.4;100.0
22674;DHT22;11504;43.334;21.918;2023-01-01T05:37:12;6.4;100.0
22674;DHT22;11504;43.334;21.918;2023-01-01T05:41:48;6.2;100.0
22674;DHT22;11504;43.334;21.918;2023-01-01T05:46:25;6.2;100.0
22674;DHT22;11504;43.334;21.918;2023-01-01T05:51:06;6.1;100.0
22674;DHT22;11504;43.334;21.918;2023-01-01T05:55:52;6.1;100.0
22674;DHT22;11504;43.334;21.918;2023-01-01T06:00:29;6.2;100.0
22674;DHT22;11504;43.334;21.918;2023-01-01T06:05:07;6.2;100.0
22674;DHT22;11504;43.334;21.918;2023-01-01T06:09:44;6.3;100.0
22674;DHT22;11504;43.334;21.918;2023-01-01T06:14:20;6.3;100.0
22674;DHT22;11504;43.334;21.918;2023-01-01T06:18:57;6.2;100.0
22674;DHT22;11504;43.334;21.918;2023-01-01T06:23:35;6.2;100.0
22674;DHT22;11504;43.334;21.918;2023-01-01T06:28:12;6.0;100.0
22674;DHT22;11504;43.334;21.918;2023-01-01T06:32:48;6.0;100.0
22674;DHT22;11504;43.334;21.918;2023-01-01T06:37:27;6.0;100.0
22674;DHT22;11504;43.334;21.918;2023-01-01T06:42:04;6.4;100.0
22674;DHT22;11504;43.334;21.918;2023-01-01T06:46:40;6.4;100.0
22674;DHT22;11504;43.334;21.918;2023-01-01T06:51:22;6.9;100.0
22674;DHT22;11504;43.334;21.918;2023-01-01T06:56:01;6.9;100.0
22674;DHT22;11504;43.334;21.918;2023-01-01T07:00:39;8.0;100.0
22674;DHT22;11504;43.334;21.918;2023-01-01T07:05:16;8.0;100.0
22674;DHT22;11504;43.334;21.918;2023-01-01T07:09:52;9.1;100.0
22674;DHT22;11504;43.334;21.918;2023-01-01T07:14:28;9.1;100.0
22674;DHT22;11504;43.334;21.918;2023-01-01T07:19:05;10.8;100.0
22674;DHT22;11504;43.334;21.918;2023-01-01T07:23:42;10.8;100.0
22674;DHT22;11504;43.334;21.918;2023-01-01T07:28:23;12.4;100.0
22674;DHT22;11504;43.334;21.918;2023-01-01T07:33:02;12.4;100.0
22674;DHT22;11504;43.334;21.918;2023-01-01T07:37:39;13.0;100.0
22674;DHT22;11504;43.334;21.918;2023-01-01T07:42:16;13.0;100.0
22674;DHT22;11504;43.334;21.918;2023-01-01T07:47:02;13.0;100.0
22674;DHT22;11504;43.334;21.918;2023-01-01T07:51:39;13.6;100.0
22674;DHT22;11504;43.334;21.918;2023-01-01T07:56:15;13.6;100.0
22674;DHT22;11504;43.334;21.918;2023-01-01T08:00:52;14.4;100.0
22674;DHT22;11504;43.334;21.918;2023-01-01T08:05:29;14.4;100.0
22674;DHT22;11504;43.334;21.918;2023-01-01T08:10:09;15.2;100.0
22674;DHT22;11504;43.334;21.918;2023-01-01T08:14:45;15.2;100.0
22674;DHT22;11504;43.334;21.918;2023-01-01T08:19:22;15.0;100.0
22674;DHT22;11504;43.334;21.918;2023-01-01T08:23:58;15.0;100.0
22674;DHT22;11504;43.334;21.918;2023-01-01T08:28:35;14.9;100.0
22674;DHT22;11504;43.334;21.918;2023-01-01T08:33:12;14.9;100.0
22674;DHT22;11504;43.334;21.918;2023-01-01T08:37:48;15.8;100.0
22674;DHT22;11504;43.334;21.918;2023-01-01T08:42:25;15.8;100.0
22674;DHT22;11504;43.334;21.918;2023-01-01T08:47:01;15.8;100.0
22674;DHT22;11504;43.334;21.918;2023-01-01T08:51:38;16.6;100.0
22674;DHT22;11504;43.334;21.918;2023-01-01T08:56:15;16.6;100.0
22674;DHT22;11504;43.334;21.918;2023-01-01T09:00:53;17.5;100.0
22674;DHT22;11504;43.334;21.918;2023-01-01T09:05:30;17.5;100.0
22674;DHT22;11504;43.334;21.918;2023-01-01T09:10:08;18.3;100.0
22674;DHT22;11504;43.334;21.918;2023-01-01T09:14:46;18.3;100.0
22674;DHT22;11504;43.334;21.918;2023-01-01T09:19:23;18.2;100.0
22674;DHT22;11504;43.334;21.918;2023-01-01T09:23:59;18.2;100.0
22674;DHT22;11504;43.334;21.918;2023-01-01T09:28:37;18.0;100.0
22674;DHT22;11504;43.334;21.918;2023-01-01T09:33:14;18.0;100.0
22674;DHT22;11504;43.334;21.918;2023-01-01T09:37:50;18.2;100.0
22674;DHT22;11504;43.334;21.918;2023-01-01T09:42:45;18.2;100.0
22674;DHT22;11504;43.334;21.918;2023-01-01T09:47:49;18.5;100.0
22674;DHT22;11504;43.334;21.918;2023-01-01T09:52:52;18.5;100.0
22674;DHT22;11504;43.334;21.918;2023-01-01T09:57:35;18.5;100.0
22674;DHT22;11504;43.334;21.918;2023-01-01T10:02:53;18.5;100.0
22674;DHT22;11504;43.334;21.918;2023-01-01T10:18:41;18.8;100.0
22674;DHT22;11504;43.334;21.918;2023-01-01T10:23:45;18.8;100.0
22674;DHT22;11504;43.334;21.918;2023-01-01T10:28:48;18.8;100.0
22674;DHT22;11504;43.334;21.918;2023-01-01T10:33:26;18.8;100.0
22674;DHT22;11504;43.334;21.918;2023-01-01T10:38:05;18.6;100.0
22674;DHT22;11504;43.334;21.918;2023-01-01T10:42:41;18.6;100.0
22674;DHT22;11504;43.334;21.918;2023-01-01T10:47:29;18.6;100.0
22674;DHT22;11504;43.334;21.918;2023-01-01T10:52:15;18.4;100.0
22674;DHT22;11504;43.334;21.918;2023-01-01T10:56:51;18.4;100.0
22674;DHT22;11504;43.334;21.918;2023-01-01T11:01:33;18.0;100.0
22674;DHT22;11504;43.334;21.918;2023-01-01T11:06:25;18.0;100.0
22674;DHT22;11504;43.334;21.918;2023-01-01T11:11:30;17.7;100.0
22674;DHT22;11504;43.334;21.918;2023-01-01T11:16:19;17.7;100.0
22674;DHT22;11504;43.334;21.918;2023-01-01T11:20:58;17.4;100.0
22674;DHT22;11504;43.334;21.918;2023-01-01T11:25:35;17.4;100.0
22674;DHT22;11504;43.334;21.918;2023-01-01T11:30:28;17.0;100.0
22674;DHT22;11504;43.334;21.918;2023-01-01T11:35:23;17.0;100.0
22674;DHT22;11504;43.334;21.918;2023-01-01T11:40:21;16.6;100.0
22674;DHT22;11504;43.334;21.918;2023-01-01T11:45:23;16.6;100.0
22674;DHT22;11504;43.334;21.918;2023-01-01T11:50:29;16.3;100.0
22674;DHT22;11504;43.334;21.918;2023-01-01T11:55:36;16.3;100.0
22674;DHT22;11504;43.334;21.918;2023-01-01T12:00:16;16.2;100.0
22674;DHT22;11504;43.334;21.918;2023-01-01T12:05:23;16.2;100.0
22674;DHT22;11504;43.334;21.918;2023-01-01T12:10:21;16.1;100.0
22674;DHT22;11504;43.334;21.918;2023-01-01T12:15:23;16.1;100.0
22674;DHT22;11504;43.334;21.918;2023-01-01T12:20:25;16.1;100.0
22674;DHT22;11504;43.334;21.918;2023-01-01T12:25:18;16.1;100.0
22674;DHT22;11504;43.334;21.918;2023-01-01T12:30:20;16.1;100.0
22674;DHT22;11504;43.334;21.918;2023-01-01T12:35:59;16.1;100.0
22674;DHT22;11504;43.334;21.918;2023-01-01T12:41:32;16.2;100.0
22674;DHT22;11504;43.334;21.918;2023-01-01T12:46:58;16.2;100.0
22674;DHT22;11504;43.334;21.918;2023-01-01T12:52:40;16.2;100.0
22674;DHT22;11504;43.334;21.918;2023-01-01T12:58:00;16.2;100.0
22674;DHT22;11504;43.334;21.918;2023-01-01T13:03:06;16.2;100.0
22674;DHT22;11504;43.334;21.918;2023-01-01T13:08:05;16.2;100.0
22674;DHT22;11504;43.334;21.918;2023-01-01T13:12:43;16.2;100.0
22674;DHT22;11504;43.334;21.918;2023-01-01T13:17:29;16.2;100.0
22674;DHT22;11504;43.334;21.918;2023-01-01T13:22:41;16.2;100.0
22674;DHT22;11504;43.334;21.918;2023-01-01T13:28:11;16.3;100.0
22674;DHT22;11504;43.334;21.918;2023-01-01T13:33:23;16.3;100.0
22674;DHT22;11504;43.334;21.918;2023-01-01T13:38:00;16.3;100.0
22674;DHT22;11504;43.334;21.918;2023-01-01T13:42:46;16.3;100.0
22674;DHT22;11504;43.334;21.918;2023-01-01T13:48:34;16.3;100.0
22674;DHT22;11504;43.334;21.918;2023-01-01T13:54:35;16.3;100.0
22674;DHT22;11504;43.334;21.918;2023-01-01T14:00:17;16.2;100.0
22674;DHT22;11504;43.334;21.918;2023-01-01T14:05:13;16.2;100.0
22674;DHT22;11504;43.334;21.918;2023-01-01T14:10:28;16.2;100.0
22674;DHT22;11504;43.334;21.918;2023-01-01T14:15:28;16.2;100.0
22674;DHT22;11504;43.334;21.918;2023-01-01T14:20:21;16.0;100.0
22674;DHT22;11504;43.334;21.918;2023-01-01T14:25:27;16.0;100.0
22674;DHT22;11504;43.334;21.918;2023-01-01T14:30:17;15.9;100.0
22674;DHT22;11504;43.334;21.918;2023-01-01T14:35:03;15.9;100.0
22674;DHT22;11504;43.334;21.918;2023-01-01T14:39:39;15.8;100.0
22674;DHT22;11504;43.334;21.918;2023-01-01T14:44:32;15.8;100.0
22674;DHT22;11504;43.334;21.918;2023-01-01T14:49:21;15.7;100.0
22674;DHT22;11504;43.334;21.918;2023-01-01T14:54:04;15.7;100.0
22674;DHT22;11504;43.334;21.918;2023-01-01T14:58:41;15.5;100.0
22674;DHT22;11504;43.334;21.918;2023-01-01T15:03:22;15.5;100.0
22674;DHT22;11504;43.334;21.918;2023-01-01T15:08:17;15.3;100.0
22674;DHT22;11504;43.334;21.918;2023-01-01T15:12:58;15.3;100.0
22674;DHT22;11504;43.334;21.918;2023-01-01T15:17:46;15.3;100.0
22674;DHT22;11504;43.334;21.918;2023-01-01T15:22:35;15.1;100.0
22674;DHT22;11504;43.334;21.918;2023-01-01T15:27:31;15.1;100.0
22674;DHT22;11504;43.334;21.918;2023-01-01T15:32:25;14.9;100.0
22674;DHT22;11504;43.334;21.918;2023-01-01T15:37:28;14.9;100.0
22674;DHT22;11504;43.334;21.918;2023-01-01T15:42:35;14.6;100.0
22674;DHT22;11504;43.334;21.918;2023-01-01T15:47:17;14.6;100.0
22674;DHT22;11504;43.334;21.918;2023-01-01T15:52:05;14.4;100.0
22674;DHT22;11504;43.334;21.918;2023-01-01T15:56:42;14.4;100.0
22674;DHT22;11504;43.334;21.918;2023-01-01T16:01:28;14.2;100.0
22674;DHT22;11504;43.334;21.918;2023-01-01T16:06:14;14.2;100.0
22674;DHT22;11504;43.334;21.918;2023-01-01T16:10:52;14.0;100.0
22674;DHT22;11504;43.334;21.918;2023-01-01T16:15:28;14.0;100.0
22674;DHT22;11504;43.334;21.918;2023-01-01T16:20:14;13.8;100.0
22674;DHT22;11504;43.334;21.918;2023-01-01T16:24:52;13.8;100.0
22674;DHT22;11504;43.334;21.918;2023-01-01T16:29:29;13.6;100.0
22674;DHT22;11504;43.334;21.918;2023-01-01T16:34:09;13.6;100.0
22674;DHT22;11504;43.334;21.918;2023-01-01T16:38:49;13.3;100.0
22674;DHT22;11504;43.334;21.918;2023-01-01T16:43:25;13.3;100.0
22674;DHT22;11504;43.334;21.918;2023-01-01T16:48:01;13.3;100.0
22674;DHT22;11504;43.334;21.918;2023-01-01T16:52:38;13.0;100.0
22674;DHT22;11504;43.334;21.918;2023-01-01T16:57:14;13.0;100.0
22674;DHT22;11504;43.334;21.918;2023-01-01T17:01:51;12.6;100.0
22674;DHT22;11504;43.334;21.918;2023-01-01T17:06:28;12.6;100.0
22674;DHT22;11504;43.334;21.918;2023-01-01T17:11:15;12.2;100.0
22674;DHT22;11504;43.334;21.918;2023-01-01T17:15:56;12.2;100.0
22674;DHT22;11504;43.334;21.918;2023-01-01T17:20:34;12.2;100.0
22674;DHT22;11504;43.334;21.918;2023-01-01T17:25:10;12.2;100.0
22674;DHT22;11504;43.334;21.918;2023-01-01T17:29:46;12.3;100.0
22674;DHT22;11504;43.334;21.918;2023-01-01T17:34:23;12.3;100.0
22674;DHT22;11504;43.334;21.918;2023-01-01T17:38:59;12.2;100.0
22674;DHT22;11504;43.334;21.918;2023-01-01T17:43:41;12.2;100.0
22674;DHT22;11504;43.334;21.918;2023-01-01T17:48:21;12.1;100.0
22674;DHT22;11504;43.334;21.918;2023-01-01T17:52:58;12.1;100.0
22674;DHT22;11504;43.334;21.918;2023-01-01T17:57:34;12.1;100.0
22674;DHT22;11504;43.334;21.918;2023-01-01T18:02:13;12.1;100.0
22674;DHT22;11504;43.334;21.918;2023-01-01T18:06:51;12.1;100.0
22674;DHT22;11504;43.334;21.918;2023-01-01T18:11:32;12.1;100.0
22674;DHT22;11504;43.334;21.918;2023-01-01T18:16:10;12.1;100.0
22674;DHT22;11504;43.334;21.918;2023-01-01T18:20:47;11.8;100.0
22674;DHT22;11504;43.334;21.918;2023-01-01T18:25:24;11.8;100.0
22674;DHT22;11504;43.334;21.918;2023-01-01T18:30:01;11.5;100.0
22674;DHT22;11504;43.334;21.918;2023-01-01T18:34:37;11.5;100.0
22674;DHT22;11504;43.334;21.918;2023-01-01T18:39:23;11.0;100.0
22674;DHT22;11504;43.334;21.918;2023-01-01T18:44:19;11.0;100.0
22674;DHT22;11504;43.334;21.918;2023-01-01T18:49:00;10.4;100.0
22674;DHT22;11504;43.334;21.918;2023-01-01T18:53:37;10.4;100.0
22674;DHT22;11504;43.334;21.918;2023-01-01T18:58:21;10.4;100.0
22674;DHT22;11504;43.334;21.918;2023-01-01T19:03:11;10.4;100.0
22674;DHT22;11504;43.334;21.918;2023-01-01T19:08:13;10.4;100.0
22674;DHT22;11504;43.334;21.918;2023-01-01T19:12:54;10.4;100.0
22674;DHT22;11504;43.334;21.918;2023-01-01T19:17:30;10.4;100.0
22674;DHT22;11504;43.334;21.918;2023-01-01T19:22:29;10.2;100.0
22674;DHT22;11504;43.334;21.918;2023-01-01T19:27:17;10.2;100.0
22674;DHT22;11504;43.334;21.918;2023-01-01T19:31:57;10.0;100.0
22674;DHT22;11504;43.334;21.918;2023-01-01T19:36:34;10.0;100.0
22674;DHT22;11504;43.334;21.918;2023-01-01T19:41:11;10.0;100.0
22674;DHT22;11504;43.334;21.918;2023-01-01T19:45:47;10.0;100.0
22674;DHT22;11504;43.334;21.918;2023-01-01T19:50:24;10.0;100.0
22674;DHT22;11504;43.334;21.918;2023-01-01T19:55:01;10.0;100.0
22674;DHT22;11504;43.334;21.918;2023-01-01T19:59:37;10.2;100.0
22674;DHT22;11504;43.334;21.918;2023-01-01T20:04:13;10.2;100.0
22674;DHT22;11504;43.334;21.918;2023-01-01T20:08:50;10.3;100.0
22674;DHT22;11504;43.334;21.918;2023-01-01T20:13:26;10.3;100.0
22674;DHT22;11504;43.334;21.918;2023-01-01T20:18:02;10.3;100.0
22674;DHT22;11504;43.334;21.918;2023-01-01T20:22:38;10.2;100.0
22674;DHT22;11504;43.334;21.918;2023-01-01T20:27:16;10.2;100.0
22674;DHT22;11504;43.334;21.918;2023-01-01T20:31:54;10.1;100.0
22674;DHT22;11504;43.334;21.918;2023-01-01T20:36:31;10.1;100.0
22674;DHT22;11504;43.334;21.918;2023-01-01T20:41:07;9.9;100.0
22674;DHT22;11504;43.334;21.918;2023-01-01T20:45:44;9.9;100.0
22674;DHT22;11504;43.334;21.918;2023-01-01T20:50:20;9.7;100.0
22674;DHT22;11504;43.334;21.918;2023-01-01T20:54:56;9.7;100.0
22674;DHT22;11504;43.334;21.918;2023-01-01T20:59:33;9.6;100.0
22674;DHT22;11504;43.334;21.918;2023-01-01T21:04:10;9.6;100.0
22674;DHT22;11504;43.334;21.918;2023-01-01T21:08:47;9.4;100.0
22674;DHT22;11504;43.334;21.918;2023-01-01T21:13:24;9.4;100.0
22674;DHT22;11504;43.334;21.918;2023-01-01T21:18:03;9.4;100.0
22674;DHT22;11504;43.334;21.918;2023-01-01T21:22:41;9.4;100.0
22674;DHT22;11504;43.334;21.918;2023-01-01T21:27:23;9.4;100.0
22674;DHT22;11504;43.334;21.918;2023-01-01T21:32:18;9.5;100.0
22674;DHT22;11504;43.334;21.918;2023-01-01T21:37:16;9.5;100.0
22674;DHT22;11504;43.334;21.918;2023-01-01T21:42:22;9.4;100.0
22674;DHT22;11504;43.334;21.918;2023-01-01T21:47:01;9.4;100.0
22674;DHT22;11504;43.334;21.918;2023-01-01T21:52:00;9.3;100.0
22674;DHT22;11504;43.334;21.918;2023-01-01T21:56:55;9.3;100.0
22674;DHT22;11504;43.334;21.918;2023-01-01T22:01:48;9.2;100.0
22674;DHT22;11504;43.334;21.918;2023-01-01T22:06:36;9.2;100.0
22674;DHT22;11504;43.334;21.918;2023-01-01T22:11:26;9.0;100.0
22674;DHT22;11504;43.334;21.918;2023-01-01T22:16:10;9.0;100.0
22674;DHT22;11504;43.334;21.918;2023-01-01T22:20:51;9.0;100.0
22674;DHT22;11504;43.334;21.918;2023-01-01T22:25:31;9.0;100.0
22674;DHT22;11504;43.334;21.918;2023-01-01T22:30:39;8.9;100.0
22674;DHT22;11504;43.334;21.918;2023-01-01T22:35:26;8.9;100.0
22674;DHT22;11504;43.334;21.918;2023-01-01T22:40:25;8.9;100.0
22674;DHT22;11504;43.334;21.918;2023-01-01T22:45:15;8.9;100.0
22674;DHT22;11504;43.334;21.918;2023-01-01T22:49:51;8.8;100.0
22674;DHT22;11504;43.334;21.918;2023-01-01T22:54:27;8.8;100.0
22674;DHT22;11504;43.334;21.918;2023-01-01T22:59:04;8.8;100.0
22674;DHT22;11504;43.334;21.918;2023-01-01T23:03:40;8.8;100.0
22674;DHT22;11504;43.334;21.918;2023-01-01T23:08:17;8.8;100.0
22674;DHT22;11504;43.334;21.918;2023-01-01T23:12:55;8.7;100.0
22674;DHT22;11504;43.334;21.918;2023-01-01T23:17:33;8.7;100.0
22674;DHT22;11504;43.334;21.918;2023-01-01T23:22:09;8.6;100.0
22674;DHT22;11504;43.334;21.918;2023-01-01T23:26:47;8.6;100.0
22674;DHT22;11504;43.334;21.918;2023-01-01T23:31:28;8.4;100.0
22674;DHT22;11504;43.334;21.918;2023-01-01T23:36:09;8.4;100.0
22674;DHT22;11504;43.334;21.918;2023-01-01T23:40:47;8.3;100.0
22674;DHT22;11504;43.334;21.918;2023-01-01T23:45:24;8.3;100.0
22674;DHT22;11504;43.334;21.918;2023-01-01T23:50:01;8.2;100.0
22674;DHT22;11504;43.334;21.918;2023-01-01T23:54:39;8.2;100.0
22674;DHT22;11504;43.334;21.918;2023-01-01T23:59:15;8.1;100.0
